EDT,Max TemperatureF,Mean TemperatureF,Min TemperatureF,Max Dew PointF,MeanDew PointF,Min DewpointF,Max Humidity, Mean Humidity, Min Humidity, Max Sea Level PressureIn, Mean Sea Level PressureIn, Min Sea Level PressureIn, Max VisibilityMiles, Mean VisibilityMiles, Min VisibilityMiles, Max Wind SpeedMPH, Mean Wind SpeedMPH, Max Gust SpeedMPH,PrecipitationIn, CloudCover, Events, WindDirDegrees
2012-3-1,71,60,46,61,47,34,100,68,25,29.98,29.92,29.89,10,10,3,16,6,23,0.18,1,Rain,246
2012-3-2,71,56,42,63,53,41,100,85,60,29.93,29.82,29.70,10,10,2,17,3,24,1.08,7,Rain,248
2012-3-3,60,52,44,59,39,19,100,66,28,29.86,29.78,29.65,10,9,3,18,6,25,0.75,3,Rain,39
2012-3-4,44,38,33,32,23,16,81,54,39,29.98,29.90,29.80,10,10,10,21,5,30,0.00,3,,282
2012-3-5,46,40,33,34,25,16,93,56,29,30.39,30.16,29.92,10,10,10,20,5,34,0.00,4,,331
2012-3-6,62,43,24,28,23,16,86,53,18,30.53,30.48,30.42,10,10,10,10,2,18,0.00,0,,234
2012-3-7,60,48,35,46,42,30,87,67,52,30.55,30.48,30.40,10,10,10,15,3,23,0.00,7,,223
2012-3-8,68,62,55,55,51,48,82,67,52,30.38,30.26,30.11,10,10,7,13,6,25,0.04,7,Rain,219
2012-3-9,55,52,44,55,40,27,100,67,35,30.34,30.25,30.11,10,10,4,15,4,22,0.32,4,Rain,26
2012-3-10,64,47,30,34,31,28,100,64,28,30.42,30.37,30.32,10,10,10,10,3,16,0.00,0,,253
2012-3-11,64,47,30,45,36,28,93,69,34,30.49,30.44,30.34,10,10,10,10,2,16,0.00,1,,225
2012-3-12,59,56,53,55,51,46,100,78,63,30.39,30.35,30.29,10,10,7,8,2,,0.11,8,,220
2012-3-13,73,64,55,63,55,46,100,81,38,30.28,30.24,30.17,10,8,2,14,2,17,0.73,5,,238
2012-3-14,78,60,42,61,50,43,100,80,36,30.31,30.26,30.20,10,8,0,9,1,,0.00,0,,255
2012-3-15,75,60,46,68,55,46,100,91,61,30.34,30.29,30.22,10,10,4,7,1,,0.12,1,,326
2012-3-16,77,64,51,61,57,52,100,86,54,30.37,30.25,30.16,10,7,0,22,3,37,0.39,5,,243
2012-3-17,73,63,53,63,57,54,100,90,53,30.34,30.26,30.19,10,8,4,6,1,,0.11,5,Rain,33
2012-3-18,78,64,51,63,55,52,100,78,39,30.32,30.25,30.18,10,8,0,12,2,18,0.01,3,Fog-Rain,255
2012-3-19,80,64,48,59,53,48,100,71,32,30.25,30.20,30.12,10,10,5,10,1,,0.00,1,,252
2012-3-20,80,66,53,61,54,52,100,65,37,30.22,30.17,30.11,10,10,5,15,2,23,0.00,1,,180
2012-3-21,77,64,51,61,54,52,100,72,41,30.27,30.22,30.18,10,10,7,15,2,22,0.00,2,,193
2012-3-22,75,65,55,63,59,52,94,78,57,30.26,30.22,30.16,10,10,4,9,2,,0.01,6,,221
2012-3-23,69,64,60,64,61,59,100,89,73,30.18,30.11,29.99,10,9,2,9,1,16,0.27,7,,254
2012-3-24,66,60,53,59,54,46,100,83,49,29.97,29.91,29.83,10,8,0,12,3,20,0.39,6,,255
2012-3-25,66,58,50,52,48,45,100,79,49,29.91,29.88,29.85,10,9,2,12,3,24,0.01,7,,6
2012-3-26,75,62,50,54,49,43,100,64,31,30.08,30.02,29.97,10,10,10,12,4,18,0.00,2,,43
2012-3-27,78,61,44,54,48,45,100,71,32,30.25,30.19,30.13,10,10,2,13,2,17,0.00,0,,250
2012-3-28,77,62,48,59,55,46,100,70,50,30.24,30.14,30.03,10,10,10,20,3,25,0.00,4,,252
2012-3-29,80,66,53,59,55,50,100,70,34,30.06,30.02,29.94,10,10,7,9,1,16,0.00,5,,20
2012-3-30,77,64,50,64,57,50,100,88,54,30.05,30.00,29.91,10,7,1,16,1,21,0.11,2,,261
2012-3-31,77,68,60,63,60,54,100,86,44,29.93,29.89,29.82,10,7,2,8,1,,0.01,6,,96